createdAt,value
2022-10-18T00:00:27.650Z,43.73
2022-10-18T00:02:58.325Z,43.65
2022-10-18T00:05:29.026Z,43.81
2022-10-18T00:07:59.872Z,43.68
2022-10-18T00:10:30.486Z,43.77
2022-10-18T00:13:01.246Z,43.72
2022-10-18T00:15:32.075Z,43.60
2022-10-18T00:18:03.311Z,43.79
2022-10-18T00:20:34.273Z,43.67
2022-10-18T00:23:04.885Z,43.64
2022-10-18T00:25:35.527Z,43.62
2022-10-18T00:28:06.410Z,43.68
2022-10-18T00:30:37.537Z,43.63
2022-10-18T00:33:08.577Z,43.43
2022-10-18T00:35:39.517Z,43.61
2022-10-18T00:38:10.230Z,43.73
2022-10-18T00:40:40.931Z,43.59
2022-10-18T00:43:17.220Z,43.64
2022-10-18T00:45:47.848Z,43.63
2022-10-18T00:48:20.866Z,43.51
2022-10-18T00:50:53.540Z,43.41
2022-10-18T00:53:25.691Z,43.55
2022-10-18T00:55:57.973Z,43.53
2022-10-18T00:58:28.618Z,43.60
2022-10-18T01:00:59.529Z,43.58
2022-10-18T01:03:30.686Z,43.55
2022-10-18T01:06:01.533Z,43.47
2022-10-18T01:08:44.571Z,43.51
2022-10-18T01:11:34.697Z,43.47
2022-10-18T01:14:22.586Z,43.43
2022-10-18T01:17:02.150Z,43.51
2022-10-18T01:19:47.708Z,43.50
2022-10-18T01:22:23.140Z,43.47
2022-10-18T01:25:08.146Z,43.32
2022-10-18T01:27:54.301Z,43.35
2022-10-18T01:30:46.750Z,43.40
2022-10-18T01:33:26.365Z,43.44
2022-10-18T01:35:57.882Z,43.29
2022-10-18T01:38:31.033Z,43.14
2022-10-18T01:41:04.289Z,43.06
2022-10-18T01:43:36.507Z,43.17
2022-10-18T01:46:09.226Z,43.31
2022-10-18T01:48:40.540Z,43.18
2022-10-18T01:51:12.289Z,42.96
2022-10-18T01:53:43.294Z,43.11
2022-10-18T01:56:36.325Z,43.18
2022-10-18T01:59:18.588Z,43.01
2022-10-18T02:02:01.670Z,42.99
2022-10-18T02:04:42.085Z,42.90
2022-10-18T02:07:24.740Z,42.91
2022-10-18T02:10:04.690Z,42.96
2022-10-18T02:12:37.303Z,42.79
2022-10-18T02:15:11.364Z,42.80
2022-10-18T02:17:45.303Z,42.75
2022-10-18T02:20:20.660Z,42.86
2022-10-18T02:22:53.156Z,43.00
2022-10-18T02:25:28.575Z,42.89
2022-10-18T02:27:59.748Z,42.80
2022-10-18T02:30:36.753Z,42.87
2022-10-18T02:33:14.005Z,42.91
2022-10-18T02:35:52.314Z,42.85
2022-10-18T02:38:25.521Z,42.85
2022-10-18T02:40:56.465Z,42.79
2022-10-18T02:43:28.121Z,42.71
2022-10-18T02:45:59.067Z,42.79
2022-10-18T02:48:29.780Z,42.86
2022-10-18T02:51:00.553Z,42.75
2022-10-18T02:53:31.399Z,42.69
2022-10-18T02:56:03.304Z,42.73
2022-10-18T02:58:34.476Z,42.77
2022-10-18T03:01:05.589Z,42.86
2022-10-18T03:03:36.278Z,42.77
2022-10-18T03:06:07.356Z,42.75
2022-10-18T03:08:38.983Z,42.72
2022-10-18T03:11:09.731Z,42.75
2022-10-18T03:13:40.359Z,42.84
2022-10-18T03:16:11.620Z,42.84
2022-10-18T03:18:42.736Z,42.80
2022-10-18T03:21:13.387Z,42.79
2022-10-18T03:23:45.109Z,42.73
2022-10-18T03:26:15.787Z,42.72
2022-10-18T03:28:46.707Z,42.67
2022-10-18T03:31:17.681Z,42.80
2022-10-18T03:33:49.117Z,42.85
2022-10-18T03:36:19.779Z,42.81
2022-10-18T03:38:50.434Z,42.84
2022-10-18T03:41:21.325Z,42.92
2022-10-18T03:43:52.078Z,42.85
2022-10-18T03:46:23.019Z,42.94
2022-10-18T03:48:53.586Z,42.95
2022-10-18T03:51:24.507Z,42.95
2022-10-18T03:53:55.232Z,43.11
2022-10-18T03:56:26.296Z,43.21
2022-10-18T03:58:57.912Z,43.35
2022-10-18T04:01:28.818Z,43.48
2022-10-18T04:03:59.539Z,43.47
2022-10-18T04:06:30.304Z,43.68
2022-10-18T04:09:03.172Z,43.61
2022-10-18T04:11:36.130Z,43.70
2022-10-18T04:14:06.746Z,43.80
2022-10-18T04:16:37.818Z,43.67
2022-10-18T04:19:08.538Z,43.90
2022-10-18T04:21:39.982Z,43.75
2022-10-18T04:24:10.667Z,44.01
2022-10-18T04:26:41.377Z,43.97
2022-10-18T04:29:12.313Z,44.05
2022-10-18T04:31:43.159Z,44.01
2022-10-18T04:34:14.205Z,44.16
2022-10-18T04:36:44.836Z,43.99
2022-10-18T04:39:15.467Z,44.02
2022-10-18T04:41:46.317Z,44.05
2022-10-18T04:44:17.279Z,44.14
2022-10-18T04:46:48.059Z,44.02
2022-10-18T04:49:18.837Z,44.02
2022-10-18T04:51:49.485Z,44.07
2022-10-18T04:54:21.898Z,44.15
2022-10-18T04:56:54.531Z,44.08
2022-10-18T04:59:25.634Z,44.07
2022-10-18T05:01:56.433Z,44.19
2022-10-18T05:04:27.310Z,44.14
2022-10-18T05:06:57.972Z,44.17
2022-10-18T05:09:28.995Z,44.12
2022-10-18T05:11:59.777Z,44.14
2022-10-18T05:14:30.706Z,44.21
2022-10-18T05:17:01.342Z,44.22
2022-10-18T05:19:32.402Z,44.38
2022-10-18T05:22:03.036Z,44.32
2022-10-18T05:24:33.880Z,44.29
2022-10-18T05:27:04.690Z,44.15
2022-10-18T05:29:35.329Z,44.25
2022-10-18T05:32:06.313Z,44.25
2022-10-18T05:34:37.445Z,44.28
2022-10-18T05:37:08.082Z,44.04
2022-10-18T05:39:39.746Z,44.26
2022-10-18T05:42:10.649Z,44.25
2022-10-18T05:44:41.544Z,44.02
2022-10-18T05:47:12.250Z,44.27
2022-10-18T05:49:43.100Z,44.15
2022-10-18T05:52:13.777Z,44.20
2022-10-18T05:54:44.626Z,44.16
2022-10-18T05:57:15.312Z,44.10
2022-10-18T05:59:46.561Z,44.18
2022-10-18T06:02:17.337Z,44.18
2022-10-18T06:04:48.141Z,44.11
2022-10-18T06:07:19.296Z,44.33
2022-10-18T06:09:50.128Z,44.21
2022-10-18T06:12:20.747Z,44.27
2022-10-18T06:14:51.574Z,44.18
2022-10-18T06:17:22.445Z,44.15
2022-10-18T06:19:53.387Z,44.28
2022-10-18T06:22:24.264Z,44.18
2022-10-18T06:24:57.201Z,44.28
2022-10-18T06:27:28.380Z,44.16
2022-10-18T06:29:59.485Z,44.33
2022-10-18T06:32:30.251Z,44.16
2022-10-18T06:35:00.980Z,44.24
2022-10-18T06:37:35.560Z,44.31
2022-10-18T06:40:08.165Z,44.18
2022-10-18T06:42:38.834Z,44.24
2022-10-18T06:45:11.518Z,44.40
2022-10-18T06:47:42.187Z,44.55
2022-10-18T06:50:13.296Z,44.39
2022-10-18T06:52:43.943Z,44.28
2022-10-18T06:55:14.878Z,44.35
2022-10-18T06:57:45.526Z,44.37
2022-10-18T07:00:18.105Z,44.31
2022-10-18T07:02:48.828Z,44.37
2022-10-18T07:05:19.791Z,44.34
2022-10-18T07:07:54.199Z,44.30
2022-10-18T07:10:27.411Z,44.40
2022-10-18T07:13:13.548Z,44.23
2022-10-18T07:15:49.582Z,44.25
2022-10-18T07:18:20.417Z,44.35
2022-10-18T07:20:51.065Z,44.50
2022-10-18T07:23:24.878Z,44.40
2022-10-18T07:25:55.765Z,44.54
2022-10-18T07:28:26.538Z,44.26
2022-10-18T07:30:59.452Z,44.20
2022-10-18T07:33:33.806Z,44.39
2022-10-18T07:36:06.109Z,44.33
2022-10-18T07:38:36.806Z,44.31
2022-10-18T07:41:09.447Z,44.49
2022-10-18T07:43:42.562Z,44.41
2022-10-18T07:46:13.998Z,44.44
2022-10-18T07:48:45.104Z,44.31
2022-10-18T07:51:16.710Z,44.20
2022-10-18T07:53:47.331Z,44.27
2022-10-18T07:56:21.061Z,44.29
2022-10-18T07:58:54.523Z,44.35
2022-10-18T08:01:26.784Z,44.17
2022-10-18T08:04:02.109Z,44.38
2022-10-18T08:06:37.027Z,44.40
2022-10-18T08:09:08.290Z,44.20
2022-10-18T08:11:39.884Z,44.36
2022-10-18T08:14:10.501Z,44.34
2022-10-18T08:16:41.226Z,44.38
2022-10-18T08:19:11.958Z,44.14
2022-10-18T08:21:43.019Z,44.35
2022-10-18T08:24:13.846Z,44.11
2022-10-18T08:26:44.545Z,44.19
2022-10-18T08:29:23.346Z,44.15
2022-10-18T08:31:57.005Z,44.18
2022-10-18T08:34:27.964Z,44.11
2022-10-18T08:36:58.753Z,44.23
2022-10-18T08:39:29.839Z,44.18
2022-10-18T08:42:22.881Z,44.28
2022-10-18T08:44:55.042Z,44.13
2022-10-18T08:47:40.118Z,44.16
2022-10-18T08:50:17.565Z,44.13
2022-10-18T08:52:54.794Z,44.12
2022-10-18T08:55:30.982Z,44.08
2022-10-18T08:58:01.633Z,44.00
2022-10-18T09:00:38.554Z,44.06
2022-10-18T09:03:23.200Z,43.93
2022-10-18T09:05:57.210Z,43.84
2022-10-18T09:08:49.570Z,43.99
2022-10-18T09:11:36.619Z,44.11
2022-10-18T09:14:25.347Z,44.00
2022-10-18T09:17:05.142Z,43.85
2022-10-18T09:19:55.116Z,43.91
2022-10-18T09:22:40.513Z,44.04
2022-10-18T09:25:21.879Z,43.96
2022-10-18T09:27:58.088Z,43.87
2022-10-18T09:30:58.732Z,43.94
2022-10-18T09:33:40.599Z,43.88
2022-10-18T09:36:18.854Z,43.99
2022-10-18T09:38:52.676Z,43.88
2022-10-18T09:41:27.102Z,43.90
2022-10-18T09:44:04.303Z,43.79
2022-10-18T09:46:39.156Z,43.87
2022-10-18T09:49:16.634Z,43.80
2022-10-18T09:51:49.922Z,43.65
2022-10-18T09:54:26.380Z,43.66
2022-10-18T09:57:03.681Z,43.64
2022-10-18T09:59:40.942Z,43.64
2022-10-18T10:02:16.026Z,43.42
2022-10-18T10:04:47.049Z,43.65
2022-10-18T10:07:20.781Z,43.53
2022-10-18T10:09:59.597Z,43.60
2022-10-18T10:12:33.587Z,43.72
2022-10-18T10:15:20.779Z,43.53
2022-10-18T10:18:01.505Z,43.63
2022-10-18T10:20:38.207Z,43.52
2022-10-18T10:25:56.817Z,43.71
2022-10-18T10:28:31.991Z,43.46
2022-10-18T10:31:20.478Z,43.54
2022-10-18T10:33:59.040Z,43.62
2022-10-18T10:36:29.948Z,43.65
2022-10-18T10:39:12.354Z,43.42
2022-10-18T10:41:43.571Z,43.45
2022-10-18T10:44:20.130Z,43.30
2022-10-18T10:46:51.626Z,43.31
2022-10-18T10:49:41.275Z,43.38
2022-10-18T10:52:37.270Z,43.24
2022-10-18T10:55:34.270Z,43.41
2022-10-18T10:58:06.324Z,43.29
2022-10-18T11:00:44.632Z,43.19
2022-10-18T11:03:31.435Z,43.17
2022-10-18T11:06:02.619Z,43.12
2022-10-18T11:08:39.433Z,43.16
2022-10-18T11:11:23.025Z,43.26
2022-10-18T11:14:13.536Z,43.08
2022-10-18T11:16:57.675Z,43.00
2022-10-18T11:19:41.406Z,43.05
2022-10-18T11:22:18.334Z,43.05
2022-10-18T11:24:49.275Z,42.99
2022-10-18T11:27:26.354Z,43.04
2022-10-18T11:30:12.538Z,43.15
2022-10-18T11:32:50.967Z,43.01
2022-10-18T11:35:40.576Z,43.17
2022-10-18T11:38:23.816Z,43.05
2022-10-18T11:41:06.331Z,43.13
2022-10-18T11:44:01.765Z,43.07
2022-10-18T11:46:51.109Z,43.08
2022-10-18T11:49:39.039Z,43.11
2022-10-18T11:52:16.969Z,43.17
2022-10-18T11:55:06.216Z,43.15
2022-10-18T11:57:46.328Z,43.10
2022-10-18T12:00:33.532Z,43.18
2022-10-18T12:03:19.777Z,43.20
2022-10-18T12:05:52.787Z,43.15
2022-10-18T12:08:29.674Z,43.13
2022-10-18T12:11:07.211Z,43.06
2022-10-18T12:13:44.435Z,42.91
2022-10-18T12:16:16.591Z,43.07
2022-10-18T12:18:55.266Z,43.28
2022-10-18T12:21:30.432Z,43.16
2022-10-18T12:24:03.954Z,43.22
2022-10-18T12:26:33.700Z,43.35
2022-10-18T12:29:18.517Z,43.20
2022-10-18T12:31:54.392Z,43.27
2022-10-18T12:34:37.058Z,43.34
2022-10-18T12:37:39.375Z,43.50
2022-10-18T12:40:18.603Z,43.50
2022-10-18T12:42:54.231Z,43.55
2022-10-18T12:45:35.043Z,43.51
2022-10-18T12:48:09.062Z,43.21
2022-10-18T12:50:42.671Z,43.26
2022-10-18T12:53:26.627Z,43.18
2022-10-18T12:56:19.876Z,43.31
2022-10-18T12:58:52.942Z,43.34
2022-10-18T13:01:25.337Z,43.12
2022-10-18T13:03:59.172Z,43.46
2022-10-18T13:07:03.800Z,43.54
2022-10-18T13:09:36.256Z,43.45
2022-10-18T13:12:37.484Z,43.47
2022-10-18T13:15:26.564Z,43.57
2022-10-18T13:18:07.944Z,43.77
2022-10-18T13:20:47.714Z,43.54
2022-10-18T13:23:38.137Z,43.66
2022-10-18T13:26:26.240Z,43.65
2022-10-18T13:29:04.101Z,43.62
2022-10-18T13:31:44.375Z,43.69
2022-10-18T13:34:33.009Z,43.67
2022-10-18T13:37:06.527Z,43.70
2022-10-18T13:39:36.018Z,43.77
2022-10-18T13:42:32.588Z,43.72
2022-10-18T13:45:38.220Z,43.73
2022-10-18T13:48:44.015Z,43.89
2022-10-18T13:51:29.585Z,43.67
2022-10-18T13:54:07.392Z,43.71
2022-10-18T13:57:03.128Z,43.58
2022-10-18T13:59:58.379Z,43.79
2022-10-18T14:03:04.172Z,43.89
2022-10-18T14:05:52.956Z,43.94
2022-10-18T14:08:30.385Z,43.79
2022-10-18T14:11:06.090Z,43.78
2022-10-18T14:13:49.086Z,43.87
2022-10-18T14:16:35.961Z,43.96
2022-10-18T14:19:16.137Z,43.79
2022-10-18T14:21:54.718Z,44.09
2022-10-18T14:24:28.315Z,44.05
2022-10-18T14:27:19.943Z,44.10
2022-10-18T14:29:52.148Z,43.83
2022-10-18T14:32:28.983Z,44.08
2022-10-18T14:35:31.623Z,43.98
2022-10-18T14:37:52.903Z,43.97
2022-10-18T14:40:33.131Z,44.24
2022-10-18T14:43:12.355Z,43.97
2022-10-18T14:45:43.815Z,44.14
2022-10-18T14:48:22.047Z,44.16
2022-10-18T14:51:00.561Z,44.32
2022-10-18T14:53:41.977Z,44.31
2022-10-18T14:56:24.329Z,44.39
2022-10-18T14:58:57.502Z,44.24
2022-10-18T15:01:31.285Z,44.18
2022-10-18T15:04:12.915Z,44.18
2022-10-18T15:06:46.843Z,44.12
2022-10-18T15:09:23.341Z,44.29
2022-10-18T15:11:57.827Z,44.16
2022-10-18T15:14:30.692Z,44.13
2022-10-18T15:17:08.667Z,44.04
2022-10-18T15:19:42.370Z,44.17
2022-10-18T15:22:30.669Z,44.16
2022-10-18T15:25:15.711Z,44.31
2022-10-18T15:27:49.805Z,44.16
2022-10-18T15:30:24.258Z,44.31
2022-10-18T15:32:57.691Z,44.17
2022-10-18T15:35:31.629Z,44.28
2022-10-18T15:38:14.371Z,44.44
2022-10-18T15:40:46.483Z,44.62
2022-10-18T15:43:40.821Z,44.68
2022-10-18T15:46:32.782Z,44.55
2022-10-18T15:49:56.895Z,44.68
2022-10-18T15:52:39.746Z,44.63
2022-10-18T15:55:49.033Z,44.83
2022-10-18T15:58:28.230Z,44.86
2022-10-18T16:01:01.845Z,44.76
2022-10-18T16:03:36.390Z,44.78
2022-10-18T16:06:12.302Z,44.57
2022-10-18T16:08:47.905Z,44.87
2022-10-18T16:11:20.821Z,44.78
2022-10-18T16:13:55.176Z,44.65
2022-10-18T16:16:30.547Z,44.61
2022-10-18T16:19:01.494Z,44.70
2022-10-18T16:21:34.402Z,45.00
2022-10-18T16:24:06.483Z,44.95
2022-10-18T16:26:38.342Z,44.71
2022-10-18T16:29:14.440Z,45.06
2022-10-18T16:31:46.735Z,44.91
2022-10-18T16:34:19.130Z,45.04
2022-10-18T16:36:50.217Z,45.12
2022-10-18T16:39:22.384Z,45.21
2022-10-18T16:41:53.553Z,45.14
2022-10-18T16:44:24.636Z,45.15
2022-10-18T16:46:56.496Z,45.02
2022-10-18T16:49:28.770Z,45.21
2022-10-18T16:52:03.616Z,45.18
2022-10-18T16:54:35.843Z,45.30
2022-10-18T16:57:07.102Z,45.10
2022-10-18T16:59:38.071Z,45.37
2022-10-18T17:02:11.765Z,45.45
2022-10-18T17:04:42.846Z,45.31
2022-10-18T17:07:23.891Z,45.20
2022-10-18T17:09:54.810Z,45.46
2022-10-18T17:12:25.893Z,45.35
2022-10-18T17:14:57.282Z,45.64
2022-10-18T17:17:28.245Z,45.49
2022-10-18T17:19:59.465Z,45.31
2022-10-18T17:22:30.506Z,45.69
2022-10-18T17:25:02.628Z,45.51
2022-10-18T17:27:33.900Z,45.59
2022-10-18T17:30:05.847Z,45.85
2022-10-18T17:32:37.035Z,45.64
2022-10-18T17:35:08.959Z,45.56
2022-10-18T17:37:43.973Z,45.65
2022-10-18T17:40:17.707Z,45.65
2022-10-18T17:42:48.637Z,45.70
2022-10-18T17:45:20.024Z,45.62
2022-10-18T17:47:51.083Z,45.88
2022-10-18T17:50:22.510Z,45.68
2022-10-18T17:52:55.602Z,45.82
2022-10-18T17:55:27.664Z,46.01
2022-10-18T17:57:58.770Z,45.79
2022-10-18T18:00:29.544Z,45.76
2022-10-18T18:03:01.493Z,45.83
2022-10-18T18:05:35.676Z,45.57
2022-10-18T18:08:06.714Z,45.65
2022-10-18T18:10:37.680Z,45.73
2022-10-18T18:13:08.463Z,45.78
2022-10-18T18:15:39.394Z,45.65
2022-10-18T18:18:10.234Z,45.77
2022-10-18T18:20:41.086Z,45.76
2022-10-18T18:23:11.850Z,45.69
2022-10-18T18:25:43.034Z,45.84
2022-10-18T18:28:13.943Z,45.92
2022-10-18T18:30:44.829Z,45.72
2022-10-18T18:33:15.760Z,45.82
2022-10-18T18:35:54.783Z,45.88
2022-10-18T18:38:26.365Z,45.79
2022-10-18T18:41:07.893Z,45.98
2022-10-18T18:43:39.930Z,45.86
2022-10-18T18:46:12.635Z,45.64
2022-10-18T18:48:43.762Z,45.80
2022-10-18T18:51:16.427Z,45.88
2022-10-18T18:53:48.761Z,45.94
2022-10-18T18:58:59.344Z,45.88
2022-10-18T19:01:32.104Z,45.90
2022-10-18T19:04:03.627Z,45.79
2022-10-18T19:06:36.728Z,45.76
2022-10-18T19:09:13.258Z,45.93
2022-10-18T19:11:44.140Z,45.88
2022-10-18T19:14:14.947Z,45.81
2022-10-18T19:16:49.293Z,45.94
2022-10-18T19:19:21.975Z,45.64
2022-10-18T19:21:55.177Z,45.80
2022-10-18T19:24:27.334Z,45.83
2022-10-18T19:26:59.831Z,45.93
2022-10-18T19:29:32.457Z,45.98
2022-10-18T19:32:05.879Z,45.63
2022-10-18T19:34:37.029Z,45.67
2022-10-18T19:37:09.564Z,45.84
2022-10-18T19:39:40.579Z,45.81
2022-10-18T19:42:17.428Z,46.04
2022-10-18T19:44:51.470Z,46.16
2022-10-18T19:47:22.355Z,45.79
2022-10-18T19:49:53.915Z,45.71
2022-10-18T19:52:24.584Z,45.53
2022-10-18T19:54:55.265Z,45.59
2022-10-18T19:57:26.593Z,45.54
2022-10-18T19:59:59.091Z,45.58
2022-10-18T20:02:31.678Z,45.60
2022-10-18T20:05:03.986Z,45.40
2022-10-18T20:07:35.107Z,45.72
2022-10-18T20:10:06.547Z,45.84
2022-10-18T20:12:37.533Z,45.72
2022-10-18T20:15:09.913Z,45.92
2022-10-18T20:17:40.628Z,45.91
2022-10-18T20:20:13.300Z,45.82
2022-10-18T20:22:44.209Z,45.77
2022-10-18T20:25:15.165Z,46.02
2022-10-18T20:27:46.092Z,45.92
2022-10-18T20:30:16.938Z,45.98
2022-10-18T20:32:47.633Z,45.88
2022-10-18T20:35:18.734Z,46.00
2022-10-18T20:37:49.864Z,46.19
2022-10-18T20:40:20.946Z,46.03
2022-10-18T20:42:54.309Z,46.00
2022-10-18T20:45:26.104Z,46.19
2022-10-18T20:47:57.730Z,46.18
2022-10-18T20:50:28.406Z,46.06
2022-10-18T20:52:59.617Z,46.20
2022-10-18T20:55:31.533Z,46.06
2022-10-18T20:58:02.221Z,46.15
2022-10-18T21:00:33.058Z,46.27
2022-10-18T21:03:04.544Z,46.14
2022-10-18T21:05:35.456Z,46.14
2022-10-18T21:08:06.540Z,46.22
2022-10-18T21:10:37.222Z,46.28
2022-10-18T21:13:07.891Z,46.16
2022-10-18T21:15:38.715Z,46.14
2022-10-18T21:18:09.550Z,46.22
2022-10-18T21:20:40.290Z,46.15
2022-10-18T21:23:10.989Z,46.28
2022-10-18T21:25:47.291Z,46.29
2022-10-18T21:28:18.789Z,46.24
2022-10-18T21:30:49.486Z,46.03
2022-10-18T21:33:20.153Z,46.29
2022-10-18T21:35:50.965Z,46.19
2022-10-18T21:38:21.617Z,46.33
2022-10-18T21:40:52.338Z,46.25
2022-10-18T21:43:23.016Z,46.22
2022-10-18T21:46:00.085Z,46.10
2022-10-18T21:48:30.902Z,46.14
2022-10-18T21:51:05.785Z,46.00
2022-10-18T21:53:37.362Z,46.14
2022-10-18T21:56:10.414Z,46.09
2022-10-18T21:58:41.946Z,46.23
2022-10-18T22:01:15.386Z,46.14
2022-10-18T22:03:47.296Z,46.10
2022-10-18T22:06:19.260Z,46.12
2022-10-18T22:08:52.833Z,46.19
2022-10-18T22:11:24.319Z,46.33
2022-10-18T22:13:55.164Z,46.19
2022-10-18T22:16:26.394Z,46.20
2022-10-18T22:19:00.860Z,46.16
2022-10-18T22:21:32.021Z,46.16
2022-10-18T22:24:05.696Z,45.97
2022-10-18T22:26:38.474Z,46.24
2022-10-18T22:29:11.753Z,46.09
2022-10-18T22:31:45.181Z,46.20
2022-10-18T22:34:18.828Z,46.06
2022-10-18T22:36:49.936Z,46.10
2022-10-18T22:39:20.927Z,46.24
2022-10-18T22:41:55.994Z,46.45
2022-10-18T22:44:27.060Z,46.16
2022-10-18T22:46:57.705Z,46.30
2022-10-18T22:49:29.896Z,46.46
2022-10-18T22:52:00.585Z,46.28
2022-10-18T22:54:31.181Z,46.19
2022-10-18T22:57:01.869Z,45.94
2022-10-18T22:59:32.903Z,46.15
2022-10-18T23:02:04.023Z,46.11
2022-10-18T23:04:34.708Z,46.08
2022-10-18T23:07:05.370Z,46.13
2022-10-18T23:09:36.542Z,46.16
2022-10-18T23:12:07.717Z,46.18
2022-10-18T23:14:38.348Z,46.26
2022-10-18T23:17:08.989Z,46.17
2022-10-18T23:19:39.619Z,46.08
2022-10-18T23:22:10.364Z,46.32
2022-10-18T23:24:41.162Z,46.28
2022-10-18T23:27:11.770Z,46.23
2022-10-18T23:29:42.435Z,46.26
2022-10-18T23:32:13.103Z,46.31
2022-10-18T23:34:43.764Z,46.23
2022-10-18T23:37:14.492Z,46.40
2022-10-18T23:39:45.162Z,46.21
2022-10-18T23:42:15.960Z,46.21
2022-10-18T23:44:46.699Z,46.25
2022-10-18T23:47:17.744Z,46.23
2022-10-18T23:49:48.480Z,46.38
2022-10-18T23:52:19.119Z,46.50
2022-10-18T23:54:50.404Z,46.28
2022-10-18T23:57:21.042Z,46.49
2022-10-18T23:59:51.740Z,46.35
